KBNL/BNL METAR and TAF weather

Enter ICAO airport designator
Station Type Date Time Source
KBNL METAR 2020/07/09 07:15 UTC NOAA

KBNL 090715Z AUTO 36005KT 10SM BKN042 OVC048 24/23 A2985 RMK AO2


Station Type Date Time Source
KBNL Decoded METAR 2020/07/09 07:15 UTC NOAA

Station name not available
Jul 09, 2020 - 03:15 AM EDT / 2020.07.09 0715 UTC
Wind: from the N (360 degrees) at 6 MPH (5 KT):0
Visibility: 10 mile(s):0
Sky conditions: overcast
Temperature: 75 F (24 C)
Dew Point: 73 F (23 C)
Relative Humidity: 94%
Pressure (altimeter): 29.85 in. Hg (1010 hPa)
ob: KBNL 090715Z AUTO 36005KT 10SM BKN042 OVC048 24/23 A2985 RMK AO2
cycle: 7

Station Type Date Time Source
KBNL TAF UTC NOAA

Error!

Example: see airport list